createdAt,value
2022-08-16T00:01:34.239Z,5.28
2022-08-16T00:04:10.274Z,5.80
2022-08-16T00:06:40.161Z,6.22
2022-08-16T00:09:11.749Z,6.75
2022-08-16T00:11:45.943Z,5.00
2022-08-16T00:14:24.303Z,6.07
2022-08-16T00:17:15.595Z,4.82
2022-08-16T00:19:53.701Z,5.03
2022-08-16T00:22:27.975Z,5.03
2022-08-16T00:24:58.463Z,5.05
2022-08-16T00:27:27.442Z,5.57
2022-08-16T00:30:00.464Z,5.88
2022-08-16T00:32:32.994Z,6.20
2022-08-16T00:35:02.791Z,4.47
2022-08-16T00:37:58.252Z,3.47
2022-08-16T00:40:43.847Z,6.97
2022-08-16T00:43:24.797Z,5.40
2022-08-16T00:46:33.118Z,5.47
2022-08-16T00:48:52.700Z,5.32
2022-08-16T00:51:26.286Z,5.72
2022-08-16T00:53:59.016Z,4.75
2022-08-16T00:56:58.230Z,4.43
2022-08-16T00:59:27.445Z,4.85
2022-08-16T01:01:57.377Z,3.95
2022-08-16T01:04:30.927Z,3.30
2022-08-16T01:07:02.808Z,3.30
2022-08-16T01:09:37.408Z,3.47
2022-08-16T01:12:26.302Z,3.40
2022-08-16T01:15:01.111Z,3.15
2022-08-16T01:17:36.881Z,3.38
2022-08-16T01:20:23.659Z,4.05
2022-08-16T01:23:09.119Z,4.60
2022-08-16T01:25:59.858Z,4.00
2022-08-16T01:28:47.175Z,5.28
2022-08-16T01:31:20.740Z,3.53
2022-08-16T01:34:01.035Z,3.78
2022-08-16T01:36:31.203Z,4.75
2022-08-16T01:39:00.204Z,4.90
2022-08-16T01:41:32.047Z,4.63
2022-08-16T01:44:01.627Z,4.40
2022-08-16T01:46:39.976Z,4.57
2022-08-16T01:49:18.603Z,4.50
2022-08-16T01:51:52.538Z,4.75
2022-08-16T01:54:31.215Z,4.20
2022-08-16T01:57:03.632Z,4.43
2022-08-16T01:59:36.638Z,4.22
2022-08-16T02:02:07.229Z,4.30
2022-08-16T02:04:56.400Z,5.10
2022-08-16T02:07:27.518Z,4.63
2022-08-16T02:10:02.229Z,4.93
2022-08-16T02:12:50.654Z,4.70
2022-08-16T02:15:26.092Z,4.68
2022-08-16T02:17:56.311Z,4.65
2022-08-16T02:20:28.061Z,4.90
2022-08-16T02:22:58.841Z,4.57
2022-08-16T02:25:50.952Z,4.47
2022-08-16T02:28:23.311Z,4.40
2022-08-16T02:30:54.813Z,4.97
2022-08-16T02:33:44.134Z,4.47
2022-08-16T02:36:47.545Z,4.47
2022-08-16T02:39:12.020Z,4.80
2022-08-16T02:41:53.427Z,4.40
2022-08-16T02:44:26.904Z,4.63
2022-08-16T02:46:57.874Z,4.93
2022-08-16T02:49:32.249Z,4.75
2022-08-16T02:52:24.456Z,5.20
2022-08-16T02:54:58.791Z,4.82
2022-08-16T02:57:28.821Z,4.88
2022-08-16T03:00:00.153Z,4.72
2022-08-16T03:02:32.982Z,4.97
2022-08-16T03:05:02.116Z,5.18
2022-08-16T03:07:37.169Z,5.10
2022-08-16T03:10:13.395Z,4.60
2022-08-16T03:12:55.653Z,4.47
2022-08-16T03:15:27.769Z,5.15
2022-08-16T03:17:57.182Z,5.28
2022-08-16T03:20:32.536Z,5.70
2022-08-16T03:23:04.087Z,6.35
2022-08-16T03:25:40.835Z,5.50
2022-08-16T03:28:13.191Z,5.15
2022-08-16T03:30:43.939Z,5.25
2022-08-16T03:33:13.120Z,5.65
2022-08-16T03:35:44.134Z,5.40
2022-08-16T03:38:34.125Z,5.75
2022-08-16T03:41:17.174Z,6.28
2022-08-16T03:43:54.569Z,4.30
2022-08-16T03:46:48.141Z,5.18
2022-08-16T03:49:14.929Z,5.30
2022-08-16T03:51:45.169Z,6.35
2022-08-16T03:54:14.453Z,5.32
2022-08-16T03:56:56.612Z,5.75
2022-08-16T03:59:29.247Z,5.43
2022-08-16T04:02:02.812Z,5.90
2022-08-16T04:04:35.988Z,5.80
2022-08-16T04:07:08.116Z,4.40
2022-08-16T04:09:38.507Z,5.25
2022-08-16T04:12:11.308Z,5.03
2022-08-16T04:14:59.222Z,4.65
2022-08-16T04:17:29.819Z,4.72
2022-08-16T04:19:59.888Z,5.40
2022-08-16T04:22:29.480Z,4.78
2022-08-16T04:24:59.334Z,5.25
2022-08-16T04:27:31.746Z,5.25
2022-08-16T04:30:02.871Z,4.85
2022-08-16T04:32:35.616Z,4.93
2022-08-16T04:35:16.333Z,5.28
2022-08-16T04:37:46.836Z,4.85
2022-08-16T04:40:27.362Z,5.40
2022-08-16T04:42:56.743Z,5.25
2022-08-16T04:45:35.616Z,4.93
2022-08-16T04:48:07.813Z,5.22
2022-08-16T04:53:15.706Z,5.68
2022-08-16T04:55:45.644Z,5.97
2022-08-16T04:58:41.378Z,4.40
2022-08-16T05:01:04.288Z,5.85
2022-08-16T05:04:00.846Z,6.63
2022-08-16T05:06:44.768Z,6.25
2022-08-16T05:09:17.019Z,5.80
2022-08-16T05:11:46.569Z,5.75
2022-08-16T05:14:20.282Z,5.82
2022-08-16T05:17:07.809Z,6.22
2022-08-16T05:19:38.307Z,6.13
2022-08-16T05:22:07.326Z,7.28
2022-08-16T05:24:54.876Z,5.80
2022-08-16T05:27:24.667Z,6.30
2022-08-16T05:30:00.693Z,6.47
2022-08-16T05:32:33.005Z,7.55
2022-08-16T05:35:10.978Z,6.72
2022-08-16T05:37:42.447Z,6.85
2022-08-16T05:40:15.230Z,6.80
2022-08-16T05:42:47.660Z,7.82
2022-08-16T05:45:21.984Z,7.03
2022-08-16T05:47:59.837Z,6.85
2022-08-16T05:50:34.065Z,5.85
2022-08-16T05:53:03.484Z,7.50
2022-08-16T05:55:40.491Z,7.10
2022-08-16T05:58:10.031Z,6.60
2022-08-16T06:00:58.896Z,7.75
2022-08-16T06:03:29.492Z,7.75
2022-08-16T06:06:00.625Z,7.00
2022-08-16T06:08:32.525Z,7.20
2022-08-16T06:11:13.408Z,8.05
2022-08-16T06:13:43.405Z,7.30
2022-08-16T06:16:18.086Z,7.07
2022-08-16T06:18:47.694Z,6.75
2022-08-16T06:21:23.730Z,7.55
2022-08-16T06:23:54.855Z,8.35
2022-08-16T06:26:24.856Z,8.20
2022-08-16T06:29:07.846Z,7.68
2022-08-16T06:31:45.296Z,7.25
2022-08-16T06:34:55.579Z,8.02
2022-08-16T06:37:08.935Z,8.40
2022-08-16T06:39:49.312Z,6.40
2022-08-16T06:42:19.947Z,6.90
2022-08-16T06:44:50.258Z,7.40
2022-08-16T06:47:19.352Z,7.60
2022-08-16T06:49:53.817Z,7.68
2022-08-16T06:52:58.237Z,8.57
2022-08-16T06:55:16.046Z,7.47
2022-08-16T06:57:45.322Z,6.07
2022-08-16T07:00:17.179Z,6.07
2022-08-16T07:02:54.754Z,5.80
2022-08-16T07:05:27.280Z,6.18
2022-08-16T07:08:12.080Z,6.07
2022-08-16T07:10:41.822Z,6.05
2022-08-16T07:13:12.129Z,7.30
2022-08-16T07:15:50.823Z,5.68
2022-08-16T07:18:21.263Z,6.28
2022-08-16T07:20:55.398Z,6.40
2022-08-16T07:23:37.179Z,5.25
2022-08-16T07:26:24.817Z,6.43
2022-08-16T07:28:57.394Z,4.72
2022-08-16T07:31:38.094Z,5.65
2022-08-16T07:34:10.029Z,5.93
2022-08-16T07:36:41.425Z,7.88
2022-08-16T07:39:19.493Z,8.30
2022-08-16T07:41:51.543Z,6.25
2022-08-16T07:44:22.094Z,8.18
2022-08-16T07:46:55.543Z,6.68
2022-08-16T07:49:26.102Z,6.60
2022-08-16T07:52:01.442Z,8.15
2022-08-16T07:54:49.360Z,5.50
2022-08-16T07:57:24.111Z,4.55
2022-08-16T07:59:53.615Z,5.25
2022-08-16T08:02:27.377Z,4.40
2022-08-16T08:04:57.652Z,5.05
2022-08-16T08:07:28.123Z,5.55
2022-08-16T08:09:59.317Z,7.90
2022-08-16T08:12:31.857Z,7.30
2022-08-16T08:15:09.680Z,5.93
2022-08-16T08:17:42.171Z,4.88
2022-08-16T08:20:26.554Z,4.45
2022-08-16T08:23:01.302Z,5.03
2022-08-16T08:25:32.722Z,4.18
2022-08-16T08:28:21.885Z,4.82
2022-08-16T08:31:01.267Z,8.85
2022-08-16T08:33:35.832Z,4.55
2022-08-16T08:36:21.611Z,4.63
2022-08-16T08:38:54.215Z,4.63
2022-08-16T08:41:28.758Z,5.20
2022-08-16T08:43:58.400Z,4.90
2022-08-16T08:46:28.955Z,4.75
2022-08-16T08:49:08.725Z,4.40
2022-08-16T08:51:39.194Z,4.60
2022-08-16T08:54:11.325Z,4.03
2022-08-16T08:56:45.387Z,4.10
2022-08-16T08:59:19.713Z,5.35
2022-08-16T09:01:56.203Z,4.38
2022-08-16T09:04:28.108Z,5.35
2022-08-16T09:06:58.373Z,5.65
2022-08-16T09:09:33.438Z,4.75
2022-08-16T09:12:06.968Z,4.43
2022-08-16T09:14:38.747Z,4.40
2022-08-16T09:17:47.187Z,3.55
2022-08-16T09:20:13.476Z,4.30
2022-08-16T09:22:44.095Z,3.78
2022-08-16T09:25:26.363Z,4.05
2022-08-16T09:28:09.539Z,4.45
2022-08-16T09:30:43.378Z,4.28
2022-08-16T09:33:19.662Z,4.28
2022-08-16T09:35:54.519Z,4.53
2022-08-16T09:38:32.301Z,3.92
2022-08-16T09:41:02.963Z,4.75
2022-08-16T09:43:59.470Z,4.65
2022-08-16T09:46:48.632Z,4.90
2022-08-16T09:49:13.270Z,4.10
2022-08-16T09:51:45.093Z,4.50
2022-08-16T09:54:16.761Z,4.30
2022-08-16T09:56:52.870Z,4.75
2022-08-16T09:59:30.641Z,4.93
2022-08-16T10:02:26.030Z,4.53
2022-08-16T10:04:54.506Z,4.40
2022-08-16T10:07:25.030Z,4.57
2022-08-16T10:09:55.276Z,4.85
2022-08-16T10:12:45.630Z,4.22
2022-08-16T10:15:20.947Z,6.45
2022-08-16T10:18:00.820Z,5.65
2022-08-16T10:20:34.650Z,6.10
2022-08-16T10:23:08.346Z,6.22
2022-08-16T10:27:18.139Z,4.85
2022-08-16T10:28:32.525Z,4.43
2022-08-16T10:31:16.741Z,4.45
2022-08-16T10:34:02.542Z,4.13
2022-08-16T10:36:38.834Z,4.97
2022-08-16T10:39:09.209Z,4.82
2022-08-16T10:41:38.073Z,5.00
2022-08-16T10:44:09.535Z,5.22
2022-08-16T10:46:42.010Z,4.60
2022-08-16T10:49:16.894Z,4.25
2022-08-16T10:52:01.528Z,3.92
2022-08-16T10:54:32.946Z,4.22
2022-08-16T10:57:05.245Z,5.50
2022-08-16T10:59:52.926Z,3.90
2022-08-16T11:03:04.737Z,5.72
2022-08-16T11:05:19.149Z,3.75
2022-08-16T11:07:52.658Z,3.35
2022-08-16T11:13:58.163Z,3.70
2022-08-16T11:16:27.378Z,5.15
2022-08-16T11:19:06.206Z,3.72
2022-08-16T11:24:39.856Z,4.07
2022-08-16T11:27:20.216Z,5.47
2022-08-16T11:29:53.366Z,5.40
2022-08-16T11:32:31.395Z,5.38
2022-08-16T11:35:10.658Z,4.35
2022-08-16T11:40:40.798Z,3.95
2022-08-16T11:43:16.783Z,4.00
2022-08-16T11:45:53.783Z,5.90
2022-08-16T11:48:24.838Z,4.22
2022-08-16T11:50:56.956Z,4.90
2022-08-16T11:53:27.009Z,4.32
2022-08-16T11:55:58.090Z,4.30
2022-08-16T11:58:31.584Z,4.38
2022-08-16T12:01:02.947Z,3.92
2022-08-16T12:03:35.236Z,4.03
2022-08-16T12:06:24.807Z,3.80
2022-08-16T12:09:01.852Z,4.10
2022-08-16T12:11:33.158Z,4.03
2022-08-16T12:14:04.680Z,4.10
2022-08-16T12:16:36.831Z,4.60
2022-08-16T12:19:10.779Z,3.85
2022-08-16T12:21:58.077Z,4.20
2022-08-16T12:24:29.110Z,4.43
2022-08-16T12:27:00.147Z,4.50
2022-08-16T12:32:12.086Z,4.28
2022-08-16T12:34:52.569Z,3.95
2022-08-16T12:37:24.809Z,3.90
2022-08-16T12:39:57.890Z,3.83
2022-08-16T12:42:35.379Z,3.53
2022-08-16T12:45:08.119Z,3.70
2022-08-16T12:48:09.897Z,4.25
2022-08-16T12:50:49.176Z,3.72
2022-08-16T12:53:21.659Z,4.07
2022-08-16T12:55:51.699Z,4.10
2022-08-16T12:58:49.973Z,3.72
2022-08-16T13:01:12.060Z,4.03
2022-08-16T13:03:41.416Z,3.95
2022-08-16T13:06:12.497Z,3.60
2022-08-16T13:08:45.372Z,3.45
2022-08-16T13:11:18.134Z,3.70
2022-08-16T13:16:24.797Z,3.40
2022-08-16T13:18:54.579Z,3.28
2022-08-16T13:21:24.814Z,3.45
2022-08-16T13:23:57.156Z,4.05
2022-08-16T13:26:27.735Z,3.65
2022-08-16T13:28:56.737Z,3.88
2022-08-16T13:31:26.250Z,3.20
2022-08-16T13:33:58.663Z,3.80
2022-08-16T13:36:48.869Z,3.97
2022-08-16T13:39:20.280Z,3.97
2022-08-16T13:41:54.092Z,3.43
2022-08-16T13:44:48.480Z,3.10
2022-08-16T13:47:12.736Z,3.35
2022-08-16T13:49:43.354Z,3.35
2022-08-16T13:52:13.858Z,3.17
2022-08-16T13:54:44.372Z,3.95
2022-08-16T13:59:43.389Z,3.58
2022-08-16T14:02:14.299Z,3.40
2022-08-16T14:04:44.909Z,2.67
2022-08-16T14:07:19.982Z,3.00
2022-08-16T14:09:55.295Z,3.08
2022-08-16T14:12:29.031Z,3.03
2022-08-16T14:14:59.300Z,2.90
2022-08-16T14:17:38.402Z,2.60
2022-08-16T14:20:21.161Z,2.90
2022-08-16T14:22:52.570Z,2.90
2022-08-16T14:25:26.842Z,2.90
2022-08-16T14:27:56.302Z,2.83
2022-08-16T14:30:26.407Z,3.60
2022-08-16T14:32:56.127Z,2.55
2022-08-16T14:35:48.291Z,3.55
2022-08-16T14:38:23.453Z,2.33
2022-08-16T14:40:55.409Z,3.00
2022-08-16T14:43:25.184Z,3.03
2022-08-16T14:45:55.534Z,2.78
2022-08-16T14:48:26.390Z,3.50
2022-08-16T14:50:56.169Z,3.00
2022-08-16T14:55:58.443Z,2.88
2022-08-16T14:58:34.688Z,2.50
2022-08-16T15:01:06.569Z,3.22
2022-08-16T15:03:44.482Z,2.72
2022-08-16T15:06:14.441Z,3.13
2022-08-16T15:08:43.893Z,3.40
2022-08-16T15:11:16.265Z,3.75
2022-08-16T15:13:46.771Z,2.85
2022-08-16T15:16:16.591Z,2.95
2022-08-16T15:18:46.489Z,3.30
2022-08-16T15:21:16.293Z,3.20
2022-08-16T15:23:45.150Z,2.63
2022-08-16T15:26:34.736Z,2.80
2022-08-16T15:29:05.677Z,3.20
2022-08-16T15:31:37.564Z,2.97
2022-08-16T15:34:06.449Z,3.25
2022-08-16T15:36:35.371Z,3.40
2022-08-16T15:39:35.627Z,3.58
2022-08-16T15:42:11.232Z,3.38
2022-08-16T15:44:52.944Z,4.40
2022-08-16T15:47:26.739Z,3.05
2022-08-16T15:49:57.877Z,2.58
2022-08-16T15:52:31.475Z,2.85
2022-08-16T15:55:13.145Z,3.20
2022-08-16T15:57:54.251Z,2.90
2022-08-16T16:00:26.693Z,2.53
2022-08-16T16:03:04.942Z,3.03
2022-08-16T16:05:38.901Z,3.17
2022-08-16T16:08:11.884Z,3.07
2022-08-16T16:10:43.435Z,3.72
2022-08-16T16:13:16.738Z,3.93
2022-08-16T16:15:49.848Z,2.72
2022-08-16T16:18:21.697Z,3.47
2022-08-16T16:20:54.069Z,3.83
2022-08-16T16:23:29.297Z,3.70
2022-08-16T16:26:00.134Z,3.88
2022-08-16T16:29:05.738Z,3.47
2022-08-16T16:31:27.263Z,3.92
2022-08-16T16:33:58.767Z,3.40
2022-08-16T16:36:34.468Z,3.65
2022-08-16T16:39:07.275Z,2.83
2022-08-16T16:41:37.998Z,3.60
2022-08-16T16:44:09.027Z,3.53
2022-08-16T16:46:43.579Z,3.58
2022-08-16T16:49:15.109Z,3.30
2022-08-16T16:51:47.229Z,3.67
2022-08-16T16:54:27.896Z,3.67
2022-08-16T16:56:58.530Z,3.15
2022-08-16T16:59:28.633Z,3.38
2022-08-16T17:02:46.206Z,3.22
2022-08-16T17:07:24.113Z,3.45
2022-08-16T17:09:53.821Z,2.63
2022-08-16T17:12:46.479Z,2.30
2022-08-16T17:15:14.961Z,2.80
2022-08-16T17:18:00.680Z,2.72
2022-08-16T17:20:31.132Z,3.10
2022-08-16T17:23:01.187Z,3.75
2022-08-16T17:25:36.546Z,5.47
2022-08-16T17:29:00.237Z,5.55
2022-08-16T17:30:58.522Z,4.47
2022-08-16T17:33:28.603Z,4.57
2022-08-16T17:36:08.739Z,4.07
2022-08-16T17:38:44.557Z,3.83
2022-08-16T17:41:20.642Z,4.82
2022-08-16T17:43:49.673Z,3.90
2022-08-16T17:46:50.734Z,3.13
2022-08-16T17:49:09.371Z,2.80
2022-08-16T17:51:38.340Z,2.92
2022-08-16T17:54:08.111Z,3.03
2022-08-16T17:56:50.130Z,2.75
2022-08-16T17:59:19.538Z,2.92
2022-08-16T18:01:50.183Z,2.90
2022-08-16T18:04:48.702Z,3.47
2022-08-16T18:07:10.139Z,4.10
2022-08-16T18:09:43.270Z,3.88
2022-08-16T18:12:41.630Z,3.60
2022-08-16T18:17:43.946Z,3.05
2022-08-16T18:20:30.313Z,3.20
2022-08-16T18:23:06.777Z,5.53
2022-08-16T18:25:36.119Z,6.00
2022-08-16T18:28:05.756Z,4.05
2022-08-16T18:30:57.441Z,3.45
2022-08-16T18:33:47.499Z,3.60
2022-08-16T18:36:47.559Z,3.72
2022-08-16T18:39:41.147Z,3.65
2022-08-16T18:42:31.294Z,3.80
2022-08-16T18:45:35.120Z,3.75
2022-08-16T18:48:28.160Z,3.95
2022-08-16T18:51:24.813Z,5.03
2022-08-16T18:54:18.975Z,5.95
2022-08-16T18:57:19.885Z,5.30
2022-08-16T19:00:16.563Z,3.95
2022-08-16T19:03:26.401Z,4.20
2022-08-16T19:06:16.228Z,4.07
2022-08-16T19:09:07.094Z,3.63
2022-08-16T19:11:56.367Z,4.32
2022-08-16T19:14:46.050Z,5.25
2022-08-16T19:17:36.359Z,5.60
2022-08-16T19:20:29.030Z,6.40
2022-08-16T19:23:27.586Z,5.40
2022-08-16T19:26:25.728Z,5.20
2022-08-16T19:29:15.636Z,4.80
2022-08-16T19:32:16.336Z,5.43
2022-08-16T19:35:08.877Z,4.78
2022-08-16T19:37:58.839Z,5.28
2022-08-16T19:40:48.961Z,7.95
2022-08-16T19:43:43.148Z,9.35
2022-08-16T19:46:32.548Z,7.10
2022-08-16T19:49:23.558Z,6.53
2022-08-16T19:52:17.848Z,4.90
2022-08-16T19:55:10.824Z,5.20
2022-08-16T19:58:03.691Z,5.07
2022-08-16T20:00:58.065Z,5.43
2022-08-16T20:03:48.508Z,7.15
2022-08-16T20:06:39.385Z,6.78
2022-08-16T20:09:29.120Z,8.15
2022-08-16T20:12:21.820Z,8.30
2022-08-16T20:15:16.105Z,7.78
2022-08-16T20:18:17.139Z,7.63
2022-08-16T20:21:10.966Z,7.90
2022-08-16T20:24:31.856Z,7.05
2022-08-16T20:27:10.628Z,7.50
2022-08-16T20:30:29.989Z,7.35
2022-08-16T20:33:30.763Z,8.10
2022-08-16T20:36:23.989Z,7.97
2022-08-16T20:39:14.495Z,12.88
2022-08-16T20:42:04.004Z,11.15
2022-08-16T20:44:55.378Z,10.75
2022-08-16T20:47:44.739Z,9.40
2022-08-16T20:50:38.659Z,8.13
2022-08-16T20:53:27.882Z,8.38
2022-08-16T20:56:17.240Z,8.25
2022-08-16T20:59:06.584Z,7.97
2022-08-16T21:02:03.122Z,7.20
2022-08-16T21:04:57.914Z,7.18
2022-08-16T21:07:56.299Z,7.25
2022-08-16T21:10:46.074Z,7.07
2022-08-16T21:13:48.494Z,7.10
2022-08-16T21:16:38.203Z,6.88
2022-08-16T21:19:28.039Z,10.32
2022-08-16T21:22:20.956Z,13.98
2022-08-16T21:25:13.750Z,16.30
2022-08-16T21:28:41.184Z,14.73
2022-08-16T21:31:14.903Z,10.77
2022-08-16T21:34:09.416Z,21.55
2022-08-16T21:36:58.653Z,15.40
2022-08-16T21:39:48.038Z,19.55
2022-08-16T21:42:42.025Z,16.02
2022-08-16T21:45:31.266Z,12.60
2022-08-16T21:48:34.477Z,11.32
2022-08-16T21:51:24.953Z,11.07
2022-08-16T21:54:14.200Z,10.05
2022-08-16T21:57:08.697Z,9.95
2022-08-16T22:00:01.462Z,9.05
2022-08-16T22:02:51.454Z,10.00
2022-08-16T22:05:45.391Z,9.02
2022-08-16T22:08:54.571Z,8.57
2022-08-16T22:11:44.917Z,7.53
2022-08-16T22:18:56.605Z,6.45
2022-08-16T22:21:45.846Z,5.95
2022-08-16T22:24:35.161Z,6.43
2022-08-16T22:27:24.387Z,6.65
2022-08-16T22:30:15.215Z,6.53
2022-08-16T22:33:10.546Z,6.55
2022-08-16T22:36:06.954Z,6.93
2022-08-16T22:38:58.087Z,7.10
2022-08-16T22:41:49.821Z,7.18
2022-08-16T22:44:44.234Z,7.32
2022-08-16T22:47:35.646Z,6.53
2022-08-16T22:50:25.457Z,6.78
2022-08-16T22:53:16.842Z,6.75
2022-08-16T22:56:06.777Z,6.18
2022-08-16T22:58:56.068Z,6.18
2022-08-16T23:01:45.311Z,6.60
2022-08-16T23:04:34.949Z,5.93
2022-08-16T23:07:25.448Z,6.40
2022-08-16T23:10:16.687Z,5.72
2022-08-16T23:13:08.441Z,5.90
2022-08-16T23:16:02.085Z,5.40
2022-08-16T23:18:53.402Z,5.60
2022-08-16T23:21:46.828Z,5.95
2022-08-16T23:24:56.748Z,5.60
2022-08-16T23:31:37.708Z,5.70
2022-08-16T23:34:30.088Z,5.97
2022-08-16T23:37:19.396Z,5.95
2022-08-16T23:40:12.687Z,6.57
2022-08-16T23:43:07.471Z,7.03
2022-08-16T23:46:00.662Z,6.05
2022-08-16T23:49:56.220Z,6.28
2022-08-16T23:52:00.471Z,6.25
2022-08-16T23:54:50.486Z,6.82
2022-08-16T23:57:39.622Z,6.75
